Time;durP1;ratioP1;P1;durP2;ratioP2;P2;SDS_P1;SDS_P2;PMS_P1;PMS_P2;Temp;Humidity;BMP_temperature;BMP_pressure;BME280_temperature;BME280_humidity;BME280_pressure;Samples;Min_cycle;Max_cycle;Signal;HPM_P1;HPM_P2
2021/11/27 00:02:03;;;;;;;94.75;65.93;;;8.70;99.90;;;;;;4992284;28;20038;-50
2021/11/27 00:04:28;;;;;;;91.75;65.93;;;8.40;99.90;;;;;;4992459;28;20156;-50
2021/11/27 00:06:54;;;;;;;83.78;61.17;;;8.40;99.90;;;;;;4992345;28;20466;-50
2021/11/27 00:09:20;;;;;;;87.53;65.43;;;8.40;99.90;;;;;;4991954;28;20117;-49
2021/11/27 00:11:46;;;;;;;88.88;62.38;;;8.40;99.90;;;;;;4991978;28;20125;-50
2021/11/27 00:14:13;;;;;;;85.80;59.22;;;8.50;99.90;;;;;;4991912;28;20034;-51
2021/11/27 00:16:40;;;;;;;83.45;60.40;;;8.70;99.90;;;;;;5024439;28;20064;-50
2021/11/27 00:19:10;;;;;;;76.68;55.78;;;8.80;99.90;;;;;;5033708;28;20034;-51
2021/11/27 00:21:40;;;;;;;82.45;59.25;;;8.90;99.90;;;;;;5033756;28;20045;-50
2021/11/27 00:24:06;;;;;;;77.25;56.80;;;9.00;99.90;;;;;;5033528;28;20484;-51
2021/11/27 00:26:32;;;;;;;83.35;60.95;;;9.00;99.90;;;;;;5032124;28;20086;-50
2021/11/27 00:28:58;;;;;;;81.43;56.65;;;9.00;99.90;;;;;;5033401;28;20029;-51
2021/11/27 00:31:26;;;;;;;76.78;53.97;;;9.00;99.90;;;;;;5033277;28;20033;-53
2021/11/27 00:33:53;;;;;;;74.38;55.28;;;9.00;99.90;;;;;;5033337;28;20464;-50
2021/11/27 00:36:20;;;;;;;71.03;50.63;;;9.00;99.90;;;;;;5033158;28;20029;-50
2021/11/27 00:38:46;;;;;;;69.05;51.40;;;8.80;99.90;;;;;;5064487;28;20040;-50
2021/11/27 00:41:13;;;;;;;71.50;51.50;;;8.60;99.90;;;;;;5047143;28;20033;-50
2021/11/27 00:43:40;;;;;;;60.88;43.97;;;8.40;99.90;;;;;;5033196;28;20039;-49
2021/11/27 00:46:06;;;;;;;64.72;43.22;;;8.20;99.90;;;;;;5033046;28;20055;-50
2021/11/27 00:48:33;;;;;;;67.90;47.28;;;8.10;99.90;;;;;;5047896;28;20712;-49
2021/11/27 00:51:03;;;;;;;65.05;44.63;;;8.00;99.90;;;;;;5032264;28;20131;-51
2021/11/27 00:53:29;;;;;;;76.78;54.20;;;8.00;99.90;;;;;;5032627;28;20519;-51
2021/11/27 00:55:55;;;;;;;73.88;47.50;;;8.00;99.90;;;;;;5033094;28;20026;-50
2021/11/27 00:58:22;;;;;;;78.00;47.08;;;8.00;99.90;;;;;;5032843;28;20033;-50
2021/11/27 01:00:52;;;;;;;87.65;55.20;;;8.00;99.90;;;;;;5033359;28;20033;-49
2021/11/27 01:03:21;;;;;;;76.40;47.95;;;8.10;99.90;;;;;;5033112;28;20570;-49
2021/11/27 01:05:48;;;;;;;90.80;55.80;;;8.00;99.90;;;;;;5032786;28;20028;-50
2021/11/27 01:08:15;;;;;;;94.07;57.78;;;7.90;99.90;;;;;;5032820;28;20480;-49
2021/11/27 01:10:58;;;;;;;98.00;58.78;;;8.00;99.90;;;;;;5032718;28;20033;-50
2021/11/27 01:13:23;;;;;;;99.95;59.03;;;8.20;99.90;;;;;;5030624;28;20044;-50
2021/11/27 01:15:49;;;;;;;93.70;55.70;;;8.20;99.90;;;;;;5032585;28;20381;-49
2021/11/27 01:18:16;;;;;;;98.38;55.63;;;8.20;99.90;;;;;;5032559;28;20366;-50
2021/11/27 01:20:49;;;;;;;102.60;58.50;;;8.30;99.90;;;;;;5032727;28;20029;-50
2021/11/27 01:23:15;;;;;;;90.32;50.88;;;8.40;99.90;;;;;;5032129;28;20021;-50
2021/11/27 01:25:44;;;;;;;98.88;52.97;;;8.30;99.90;;;;;;5032531;28;20026;-50
2021/11/27 01:28:11;;;;;;;80.30;44.42;;;8.30;99.90;;;;;;5033012;28;20488;-50
2021/11/27 01:30:37;;;;;;;94.03;47.33;;;8.30;99.90;;;;;;5032266;28;20060;-50
2021/11/27 01:33:03;;;;;;;90.97;44.65;;;8.30;99.90;;;;;;5032638;28;20461;-50
2021/11/27 01:35:29;;;;;;;84.95;42.03;;;8.30;99.90;;;;;;5031085;28;20045;-51
2021/11/27 01:37:55;;;;;;;97.22;45.88;;;8.20;99.90;;;;;;5032379;28;20036;-50
2021/11/27 01:40:25;;;;;;;81.97;39.53;;;8.20;99.90;;;;;;5032344;28;20029;-51
2021/11/27 01:42:53;;;;;;;69.80;39.50;;;8.20;99.90;;;;;;5031360;28;20036;-50
2021/11/27 01:45:21;;;;;;;66.80;35.45;;;8.30;99.90;;;;;;5030201;28;20066;-50
2021/11/27 01:47:52;;;;;;;56.05;31.02;;;8.30;99.90;;;;;;5028936;28;20116;-50
2021/11/27 01:50:19;;;;;;;61.92;32.20;;;8.30;99.90;;;;;;5012662;28;20500;-51
2021/11/27 01:52:45;;;;;;;56.35;31.67;;;8.30;99.90;;;;;;5030279;28;20428;-50
2021/11/27 01:55:11;;;;;;;68.35;33.35;;;8.20;99.90;;;;;;5036666;28;20021;-50
2021/11/27 01:57:38;;;;;;;78.57;35.47;;;8.30;99.90;;;;;;5036111;28;20099;-50
2021/11/27 02:00:07;;;;;;;66.57;33.38;;;8.30;99.90;;;;;;5036825;28;20068;-50
2021/11/27 02:02:33;;;;;;;64.45;32.28;;;8.30;99.90;;;;;;5034010;28;20091;-51
2021/11/27 02:04:59;;;;;;;53.03;28.00;;;8.30;99.90;;;;;;5036213;28;20045;-51
2021/11/27 02:07:25;;;;;;;33.80;17.60;;;8.20;99.90;;;;;;5036690;28;20346;-50
2021/11/27 02:09:51;;;;;;;52.83;26.50;;;8.10;99.90;;;;;;5036042;28;20025;-50
2021/11/27 02:12:17;;;;;;;35.03;22.10;;;8.10;99.90;;;;;;5034055;28;20071;-50
2021/11/27 02:14:43;;;;;;;36.83;21.90;;;8.00;99.90;;;;;;5035918;28;20029;-49
2021/11/27 02:17:10;;;;;;;31.20;19.23;;;8.00;99.90;;;;;;5036182;28;20048;-50
2021/11/27 02:19:36;;;;;;;28.08;17.73;;;8.00;99.90;;;;;;5035920;28;20428;-50
2021/11/27 02:22:04;;;;;;;18.83;12.32;;;8.00;99.90;;;;;;5035925;28;20104;-49
2021/11/27 02:24:30;;;;;;;20.98;13.40;;;7.90;99.90;;;;;;5035848;28;20056;-49
2021/11/27 02:26:56;;;;;;;12.52;8.88;;;7.80;99.90;;;;;;5035862;28;20103;-50
2021/11/27 02:29:29;;;;;;;12.57;9.68;;;7.80;99.90;;;;;;5035784;28;20148;-50
2021/11/27 02:31:56;;;;;;;7.88;5.93;;;7.80;99.90;;;;;;5035947;28;20373;-50
2021/11/27 02:34:22;;;;;;;11.77;8.88;;;7.60;99.90;;;;;;5035876;28;20552;-50
2021/11/27 02:36:52;;;;;;;11.20;7.78;;;7.60;99.90;;;;;;5035452;28;20155;-50
2021/11/27 02:39:19;;;;;;;10.38;6.55;;;7.60;99.90;;;;;;5035496;28;20033;-50
2021/11/27 02:41:46;;;;;;;10.43;8.90;;;7.50;99.90;;;;;;5035948;28;20487;-50
2021/11/27 02:44:11;;;;;;;7.28;5.43;;;7.40;99.90;;;;;;5035691;28;20025;-50
2021/11/27 02:46:39;;;;;;;10.32;7.82;;;7.40;99.90;;;;;;5035157;28;20508;-49
2021/11/27 02:49:06;;;;;;;13.38;9.48;;;7.30;99.90;;;;;;5035474;28;20025;-50
2021/11/27 02:51:32;;;;;;;13.30;9.95;;;7.20;99.90;;;;;;5034018;28;20416;-50
2021/11/27 02:53:58;;;;;;;12.88;10.10;;;7.30;99.90;;;;;;5035129;28;20040;-50
2021/11/27 02:56:24;;;;;;;11.93;8.50;;;7.40;99.90;;;;;;5035310;28;20120;-50
2021/11/27 02:58:50;;;;;;;12.25;9.23;;;7.50;99.90;;;;;;5066240;28;20037;-49
2021/11/27 03:01:16;;;;;;;10.20;8.57;;;7.50;99.90;;;;;;5035161;28;20457;-50
2021/11/27 03:03:42;;;;;;;11.02;8.23;;;7.50;99.90;;;;;;5034782;28;20537;-50
2021/11/27 03:06:08;;;;;;;11.18;7.78;;;7.60;99.90;;;;;;5066465;28;20112;-50
2021/11/27 03:08:36;;;;;;;11.20;8.73;;;7.50;99.90;;;;;;5032732;28;20034;-50
2021/11/27 03:11:02;;;;;;;10.32;8.38;;;7.50;99.90;;;;;;5034760;28;20036;-50
2021/11/27 03:13:36;;;;;;;9.15;7.68;;;7.60;99.90;;;;;;5035134;28;20036;-49
2021/11/27 03:16:03;;;;;;;10.93;8.45;;;7.60;99.90;;;;;;5034753;28;20108;-50
2021/11/27 03:18:29;;;;;;;10.80;8.63;;;7.70;99.90;;;;;;5035022;28;20112;-50
2021/11/27 03:20:55;;;;;;;12.13;9.35;;;7.80;99.90;;;;;;5034789;28;20041;-50
2021/11/27 03:23:21;;;;;;;12.93;9.13;;;7.80;99.90;;;;;;5034839;28;20030;-50
2021/11/27 03:25:48;;;;;;;12.65;9.10;;;7.90;99.90;;;;;;5034672;28;20147;-50
2021/11/27 03:28:15;;;;;;;13.52;9.88;;;8.00;99.90;;;;;;5034831;28;20389;-50
2021/11/27 03:30:41;;;;;;;9.90;8.50;;;8.00;99.90;;;;;;5034802;28;20068;-50
2021/11/27 03:33:07;;;;;;;11.65;9.05;;;8.10;99.90;;;;;;5034486;28;20036;-50
2021/11/27 03:35:33;;;;;;;12.00;10.05;;;8.10;99.90;;;;;;5034471;28;20026;-50
2021/11/27 03:37:59;;;;;;;13.23;9.50;;;8.00;99.90;;;;;;5034534;28;20041;-50
2021/11/27 03:40:26;;;;;;;13.23;9.93;;;8.00;99.90;;;;;;5034431;28;20037;-50
2021/11/27 03:42:52;;;;;;;15.15;10.70;;;8.00;99.90;;;;;;5051764;28;20052;-50
2021/11/27 03:45:19;;;;;;;11.25;8.82;;;7.90;99.90;;;;;;5034156;28;20029;-50
2021/11/27 03:48:03;;;;;;;9.07;7.90;;;7.90;99.90;;;;;;5034344;28;20029;-50
2021/11/27 03:50:50;;;;;;;11.88;9.27;;;7.80;99.90;;;;;;5034319;28;20045;-50
2021/11/27 03:53:19;;;;;;;12.55;9.80;;;7.80;99.90;;;;;;5034101;28;20025;-50
2021/11/27 03:55:45;;;;;;;12.00;9.65;;;7.80;99.90;;;;;;5034351;28;20021;-51
2021/11/27 03:58:11;;;;;;;13.00;9.52;;;7.80;99.90;;;;;;5048694;28;20048;-50
2021/11/27 04:00:38;;;;;;;14.38;10.05;;;7.80;99.90;;;;;;5034064;28;20029;-49
2021/11/27 04:03:06;;;;;;;12.55;9.25;;;7.70;99.90;;;;;;5034383;28;20036;-50
2021/11/27 04:05:38;;;;;;;13.60;10.20;;;7.60;99.90;;;;;;5034137;28;20089;-49
2021/11/27 04:08:04;;;;;;;13.80;10.35;;;7.50;99.90;;;;;;5033919;28;20064;-49
2021/11/27 04:10:30;;;;;;;14.88;11.52;;;7.60;99.90;;;;;;5033799;28;20497;-49
2021/11/27 04:12:56;;;;;;;14.13;10.88;;;7.60;99.90;;;;;;5034118;28;20032;-50
2021/11/27 04:15:22;;;;;;;15.05;11.00;;;7.50;99.90;;;;;;5032793;28;20040;-50
2021/11/27 04:17:49;;;;;;;14.25;10.80;;;7.50;99.90;;;;;;5033531;28;20084;-50
2021/11/27 04:20:16;;;;;;;16.85;11.80;;;7.50;99.90;;;;;;5033488;28;20065;-50
2021/11/27 04:22:41;;;;;;;15.82;13.07;;;7.50;99.90;;;;;;5033675;28;20043;-49
2021/11/27 04:25:08;;;;;;;12.77;10.60;;;7.50;99.90;;;;;;5033749;28;20457;-50
2021/11/27 04:27:35;;;;;;;14.68;11.13;;;7.60;99.90;;;;;;5031500;28;20547;-51
2021/11/27 04:30:04;;;;;;;13.20;10.43;;;7.50;99.90;;;;;;5033585;28;20033;-49
2021/11/27 04:32:29;;;;;;;13.10;10.30;;;7.60;99.90;;;;;;5033439;28;20025;-50
2021/11/27 04:34:55;;;;;;;13.88;10.82;;;7.50;99.90;;;;;;5033638;28;20079;-49
2021/11/27 04:37:21;;;;;;;14.23;10.40;;;7.50;99.90;;;;;;5033346;28;20043;-50
2021/11/27 04:39:47;;;;;;;13.27;10.32;;;7.50;99.90;;;;;;5033342;28;20469;-50
2021/11/27 04:42:13;;;;;;;13.30;10.15;;;7.60;99.90;;;;;;5033588;28;20060;-49
2021/11/27 04:44:39;;;;;;;11.05;8.77;;;7.50;99.90;;;;;;5033509;28;20038;-49
2021/11/27 04:47:05;;;;;;;12.00;10.13;;;7.40;99.90;;;;;;5032960;28;20048;-51
2021/11/27 04:49:30;;;;;;;11.18;8.60;;;7.50;99.90;;;;;;5033369;28;20025;-50
2021/11/27 04:51:56;;;;;;;11.60;8.77;;;7.40;99.90;;;;;;5047679;28;20037;-50
2021/11/27 04:54:22;;;;;;;11.07;9.00;;;7.20;99.90;;;;;;5064253;28;20455;-50
2021/11/27 04:56:48;;;;;;;11.02;9.32;;;7.30;99.90;;;;;;5032834;28;20038;-50
2021/11/27 04:59:14;;;;;;;13.60;9.75;;;7.30;99.90;;;;;;5047524;28;20049;-50
2021/11/27 05:01:39;;;;;;;11.23;9.10;;;7.40;99.90;;;;;;5032558;28;20037;-50
2021/11/27 05:04:05;;;;;;;11.23;9.20;;;7.20;99.90;;;;;;5030841;28;20469;-50
2021/11/27 05:06:31;;;;;;;10.55;8.65;;;7.30;99.90;;;;;;5031927;28;20492;-50
2021/11/27 05:08:57;;;;;;;10.35;7.78;;;7.40;99.90;;;;;;5028361;28;20029;-50
2021/11/27 05:11:23;;;;;;;9.48;8.40;;;7.50;99.90;;;;;;5030848;28;20025;-51
2021/11/27 05:13:49;;;;;;;9.77;8.27;;;7.50;99.90;;;;;;5031590;28;20128;-51
2021/11/27 05:16:15;;;;;;;11.85;8.57;;;7.60;99.90;;;;;;5026387;28;20472;-51
2021/11/27 05:18:43;;;;;;;8.80;7.68;;;7.70;99.90;;;;;;5032345;28;20120;-50
2021/11/27 05:21:10;;;;;;;10.60;8.63;;;7.80;99.90;;;;;;5043883;28;20051;-50
2021/11/27 05:23:36;;;;;;;10.40;8.50;;;7.80;99.90;;;;;;5047101;28;20049;-50
2021/11/27 05:26:02;;;;;;;10.00;8.10;;;7.80;99.90;;;;;;5032461;28;20381;-50
2021/11/27 05:28:28;;;;;;;10.25;8.63;;;7.90;99.90;;;;;;5030205;28;20032;-51
2021/11/27 05:30:54;;;;;;;9.77;8.02;;;8.00;99.90;;;;;;5059520;28;20052;-51
2021/11/27 05:33:34;;;;;;;11.25;8.55;;;8.00;99.90;;;;;;5032262;28;20044;-49
2021/11/27 05:36:01;;;;;;;10.35;7.65;;;8.00;99.90;;;;;;5030988;28;20045;-49
2021/11/27 05:38:26;;;;;;;9.68;8.15;;;7.90;99.90;;;;;;5031610;28;20103;-49
2021/11/27 05:40:53;;;;;;;10.63;8.30;;;7.80;99.90;;;;;;4995847;28;20477;-50
2021/11/27 05:43:19;;;;;;;8.93;7.75;;;7.90;99.90;;;;;;5022236;28;20022;-50
2021/11/27 05:45:45;;;;;;;10.38;7.75;;;8.00;99.90;;;;;;5026157;28;20425;-51
2021/11/27 05:48:12;;;;;;;9.82;8.05;;;8.00;99.90;;;;;;4990906;28;20054;-48
2021/11/27 05:50:38;;;;;;;11.60;8.63;;;8.10;99.90;;;;;;5026977;28;20038;-50
2021/11/27 05:53:05;;;;;;;12.13;9.80;;;8.20;99.90;;;;;;5012430;28;20042;-49
2021/11/27 05:55:32;;;;;;;10.23;8.57;;;8.40;99.90;;;;;;5012755;28;20038;-50
2021/11/27 05:57:57;;;;;;;9.15;8.13;;;8.50;99.90;;;;;;5026446;28;20058;-50
2021/11/27 06:00:23;;;;;;;9.80;8.10;;;8.50;99.90;;;;;;5015720;28;20079;-50
2021/11/27 06:02:49;;;;;;;9.93;8.32;;;8.60;99.90;;;;;;5023924;28;20041;-49
2021/11/27 06:05:15;;;;;;;11.43;9.25;;;8.60;99.90;;;;;;5022194;28;20037;-50
2021/11/27 06:07:41;;;;;;;11.95;9.77;;;8.70;99.90;;;;;;5022473;28;20021;-50
2021/11/27 06:10:08;;;;;;;14.65;9.98;;;8.70;99.90;;;;;;5024030;28;20038;-52
2021/11/27 06:12:34;;;;;;;19.42;15.85;;;8.60;99.90;;;;;;5029144;28;20033;-50
2021/11/27 06:15:00;;;;;;;16.35;12.00;;;8.60;99.90;;;;;;5032257;28;20086;-51
2021/11/27 06:17:25;;;;;;;51.35;34.25;;;8.60;99.90;;;;;;5012707;28;20045;-50
2021/11/27 06:19:51;;;;;;;37.35;18.65;;;8.50;99.90;;;;;;5045110;28;20042;-51
2021/11/27 06:22:20;;;;;;;17.85;10.30;;;8.30;99.90;;;;;;5028389;28;20492;-49
2021/11/27 06:24:46;;;;;;;11.30;8.48;;;7.70;99.90;;;;;;5029639;28;20086;-50
2021/11/27 06:27:12;;;;;;;9.15;7.10;;;7.50;99.90;;;;;;5031022;28;20124;-50
2021/11/27 06:29:38;;;;;;;11.10;9.10;;;7.30;99.90;;;;;;5029739;28;20073;-50
2021/11/27 06:32:08;;;;;;;10.70;8.60;;;7.30;99.90;;;;;;5032004;28;20129;-50
2021/11/27 06:34:35;;;;;;;8.73;7.80;;;7.20;99.90;;;;;;5029781;28;20057;-50
2021/11/27 06:37:01;;;;;;;10.15;8.52;;;7.00;99.90;;;;;;5030878;28;20098;-50
2021/11/27 06:39:26;;;;;;;9.38;7.88;;;7.00;99.90;;;;;;5032303;28;20120;-51
2021/11/27 06:41:52;;;;;;;9.82;8.38;;;7.00;99.90;;;;;;5034612;28;20026;-50
2021/11/27 06:44:18;;;;;;;9.30;7.68;;;7.00;99.90;;;;;;5034834;28;20033;-50
2021/11/27 06:46:43;;;;;;;12.57;9.57;;;7.10;99.90;;;;;;5031741;28;20049;-51
2021/11/27 06:49:09;;;;;;;11.02;8.63;;;7.20;99.90;;;;;;5032126;28;20056;-50
2021/11/27 06:51:36;;;;;;;14.88;10.90;;;7.30;99.90;;;;;;5015258;28;20489;-50
2021/11/27 06:54:02;;;;;;;23.35;16.98;;;7.40;99.90;;;;;;5032133;28;20030;-51
2021/11/27 06:56:28;;;;;;;17.70;12.93;;;7.40;99.90;;;;;;5014305;28;20616;-50
2021/11/27 06:58:54;;;;;;;17.83;12.93;;;7.60;99.90;;;;;;5031637;28;20052;-50
2021/11/27 07:01:20;;;;;;;15.05;11.40;;;7.60;99.90;;;;;;5031724;28;20042;-50
2021/11/27 07:03:45;;;;;;;12.75;10.80;;;7.80;99.90;;;;;;5031720;28;20432;-50
2021/11/27 07:06:11;;;;;;;15.75;13.63;;;7.80;99.90;;;;;;5015109;28;20446;-50
2021/11/27 07:08:37;;;;;;;11.80;7.82;;;7.70;99.90;;;;;;4996538;28;20050;-52
2021/11/27 07:11:03;;;;;;;18.75;13.63;;;7.20;99.90;;;;;;5030988;28;20571;-50
2021/11/27 07:13:28;;;;;;;25.75;20.23;;;7.50;99.90;;;;;;4998182;28;20402;-51
2021/11/27 07:15:54;;;;;;;18.05;13.00;;;7.50;99.90;;;;;;5030741;28;20402;-51
2021/11/27 07:18:20;;;;;;;17.60;13.20;;;7.70;99.90;;;;;;5043203;28;20034;-50
2021/11/27 07:20:46;;;;;;;18.52;12.95;;;7.60;99.90;;;;;;5033067;28;20477;-50
2021/11/27 07:23:12;;;;;;;16.95;12.43;;;7.80;99.90;;;;;;5031666;28;20080;-50
2021/11/27 07:25:38;;;;;;;18.65;13.15;;;7.50;99.90;;;;;;5031686;28;20045;-50
2021/11/27 07:28:05;;;;;;;15.85;10.73;;;7.60;99.90;;;;;;5032914;28;20044;-50
2021/11/27 07:30:31;;;;;;;17.75;10.73;;;7.30;99.90;;;;;;5033322;28;20032;-50
2021/11/27 07:32:57;;;;;;;19.35;11.13;;;7.30;99.90;;;;;;5032819;28;20033;-50
2021/11/27 07:35:22;;;;;;;20.80;11.07;;;7.20;99.90;;;;;;5031304;28;20045;-50
2021/11/27 07:37:48;;;;;;;18.40;11.98;;;7.10;99.90;;;;;;5033459;28;20041;-50
2021/11/27 07:40:14;;;;;;;17.85;11.05;;;7.10;99.90;;;;;;5030652;28;20037;-50
2021/11/27 07:42:40;;;;;;;19.30;11.80;;;7.00;99.90;;;;;;5044467;28;20159;-50
2021/11/27 07:45:07;;;;;;;22.38;12.95;;;7.00;99.90;;;;;;5021553;28;20122;-50
2021/11/27 07:47:35;;;;;;;21.55;14.23;;;7.00;99.90;;;;;;5022491;28;20044;-50
2021/11/27 07:50:05;;;;;;;22.20;14.38;;;7.20;99.90;;;;;;5013306;28;20068;-50
2021/11/27 07:52:31;;;;;;;19.98;12.45;;;7.60;99.90;;;;;;5017933;28;20108;-50
2021/11/27 07:54:57;;;;;;;20.77;10.45;;;7.50;99.90;;;;;;5022858;28;20165;-51
2021/11/27 07:57:23;;;;;;;24.95;14.85;;;7.20;99.90;;;;;;5021668;28;20121;-50
2021/11/27 07:59:49;;;;;;;25.13;15.93;;;7.20;99.90;;;;;;5022924;28;20037;-50
2021/11/27 08:02:15;;;;;;;27.48;17.55;;;7.20;99.90;;;;;;5020981;28;20060;-50
2021/11/27 08:04:41;;;;;;;21.75;13.95;;;7.10;99.90;;;;;;5021683;28;20362;-50
2021/11/27 08:07:06;;;;;;;21.92;11.75;;;6.80;99.90;;;;;;5023114;28;20025;-50
2021/11/27 08:09:32;;;;;;;20.10;10.35;;;6.90;99.90;;;;;;5021965;28;20022;-48
2021/11/27 08:11:58;;;;;;;8.45;5.07;;;6.70;99.90;;;;;;5027821;28;20037;-50
2021/11/27 08:14:28;;;;;;;23.88;15.88;;;6.70;99.90;;;;;;5027379;28;20041;-51
2021/11/27 08:16:54;;;;;;;17.23;10.13;;;7.20;99.90;;;;;;5031430;28;20134;-50
2021/11/27 08:19:19;;;;;;;26.10;17.05;;;7.10;99.90;;;;;;5032626;28;20116;-50
2021/11/27 08:21:45;;;;;;;24.73;16.15;;;7.40;99.90;;;;;;5032785;28;20508;-50
2021/11/27 08:24:11;;;;;;;26.67;17.25;;;7.50;99.90;;;;;;5032651;28;20025;-50
2021/11/27 08:26:37;;;;;;;22.38;13.75;;;7.70;99.90;;;;;;5032771;28;20516;-50
2021/11/27 08:29:04;;;;;;;33.13;19.40;;;7.50;99.90;;;;;;5032554;28;20104;-51
2021/11/27 08:31:30;;;;;;;26.63;16.70;;;7.60;99.90;;;;;;5032715;28;20037;-50
2021/11/27 08:33:57;;;;;;;25.85;15.35;;;7.60;99.90;;;;;;5032464;28;20358;-50
2021/11/27 08:36:22;;;;;;;29.50;15.85;;;7.80;99.90;;;;;;5032294;28;20117;-50
2021/11/27 08:38:48;;;;;;;31.67;19.73;;;7.40;99.90;;;;;;5013362;28;20109;-50
2021/11/27 08:41:14;;;;;;;36.65;19.70;;;7.60;99.90;;;;;;5032355;28;20040;-50
2021/11/27 08:43:40;;;;;;;26.95;17.42;;;7.70;99.90;;;;;;5030080;28;20091;-50
2021/11/27 08:46:06;;;;;;;22.15;14.93;;;7.60;99.90;;;;;;5031992;28;20037;-50
2021/11/27 08:48:36;;;;;;;19.63;12.32;;;7.50;99.90;;;;;;5046777;28;20041;-50
2021/11/27 08:51:04;;;;;;;23.73;16.17;;;7.40;99.90;;;;;;5032468;28;20563;-50
2021/11/27 08:53:30;;;;;;;26.33;14.88;;;7.60;99.90;;;;;;5029540;28;20417;-51
2021/11/27 08:55:56;;;;;;;23.80;14.02;;;7.50;99.90;;;;;;5029368;28;20199;-50
2021/11/27 08:58:21;;;;;;;18.58;10.60;;;7.50;99.90;;;;;;5029681;28;20046;-51
2021/11/27 09:00:47;;;;;;;24.33;14.57;;;7.30;99.90;;;;;;5029698;28;20044;-50
2021/11/27 09:03:13;;;;;;;18.92;9.90;;;7.20;99.90;;;;;;5012203;28;20116;-51
2021/11/27 09:05:39;;;;;;;27.45;16.98;;;7.00;99.90;;;;;;5029610;28;20037;-50
2021/11/27 09:08:05;;;;;;;29.58;19.00;;;7.20;99.90;;;;;;5029395;28;20052;-50
2021/11/27 09:10:31;;;;;;;31.08;20.25;;;7.30;99.90;;;;;;5029288;28;20169;-51
2021/11/27 09:12:58;;;;;;;24.60;13.80;;;7.60;99.90;;;;;;5029524;28;20123;-51
2021/11/27 09:15:25;;;;;;;23.58;14.85;;;7.50;99.90;;;;;;5029413;28;20048;-51
2021/11/27 09:17:50;;;;;;;20.63;11.75;;;7.40;99.90;;;;;;5029171;28;20092;-50
2021/11/27 09:20:16;;;;;;;20.98;13.43;;;7.30;99.90;;;;;;5012606;28;20076;-50
2021/11/27 09:22:42;;;;;;;31.88;19.80;;;7.50;99.90;;;;;;5029411;28;20033;-50
2021/11/27 09:25:09;;;;;;;28.33;16.75;;;7.70;99.90;;;;;;5031120;28;20041;-50
2021/11/27 09:27:35;;;;;;;27.52;16.17;;;7.70;99.90;;;;;;5046004;28;20037;-51
2021/11/27 09:30:01;;;;;;;38.35;24.58;;;7.80;99.90;;;;;;5031616;28;20122;-51
2021/11/27 09:32:26;;;;;;;34.30;21.77;;;8.00;99.90;;;;;;5031523;28;20029;-51
2021/11/27 09:34:54;;;;;;;28.58;17.20;;;7.70;99.90;;;;;;5031602;28;20057;-51
2021/11/27 09:37:20;;;;;;;32.92;21.67;;;7.80;99.90;;;;;;5031445;28;20053;-50
2021/11/27 09:39:47;;;;;;;35.17;23.42;;;7.70;99.90;;;;;;5031333;28;20048;-50
2021/11/27 09:42:15;;;;;;;26.10;17.52;;;7.90;99.90;;;;;;5031509;28;20439;-51
2021/11/27 09:44:48;;;;;;;25.85;17.77;;;8.10;99.90;;;;;;5031480;28;20029;-51
2021/11/27 09:47:15;;;;;;;23.73;16.38;;;8.30;99.90;;;;;;5031306;28;20075;-51
2021/11/27 09:49:43;;;;;;;13.65;7.40;;;8.60;99.90;;;;;;5031425;28;20030;-50
2021/11/27 09:52:09;;;;;;;20.67;12.73;;;8.40;99.90;;;;;;5031332;28;20037;-51
2021/11/27 09:54:35;;;;;;;27.52;16.45;;;8.00;99.90;;;;;;5029187;28;20029;-51
2021/11/27 09:57:06;;;;;;;32.67;20.75;;;8.10;99.90;;;;;;5031565;28;20044;-51
2021/11/27 09:59:32;;;;;;;33.53;21.42;;;8.30;99.90;;;;;;5031306;28;20041;-51
2021/11/27 10:01:59;;;;;;;44.92;30.98;;;8.40;99.90;;;;;;5031487;28;20392;-51
2021/11/27 10:04:31;;;;;;;27.02;18.60;;;8.50;99.90;;;;;;5031321;28;20040;-51
2021/11/27 10:06:59;;;;;;;28.13;19.23;;;8.60;99.90;;;;;;5031257;28;20040;-50
2021/11/27 10:09:25;;;;;;;27.40;14.95;;;8.60;99.90;;;;;;5031228;28;20041;-51
2021/11/27 10:11:53;;;;;;;36.50;21.58;;;8.50;99.90;;;;;;5031192;28;20034;-51
2021/11/27 10:14:20;;;;;;;30.95;20.17;;;8.70;99.90;;;;;;5048587;28;20041;-51
2021/11/27 10:16:58;;;;;;;37.00;25.23;;;8.80;99.90;;;;;;5034976;28;20036;-51
2021/11/27 10:19:53;;;;;;;38.40;22.00;;;9.00;99.90;;;;;;5035319;28;20121;-51
2021/11/27 10:22:23;;;;;;;34.75;21.98;;;9.00;99.90;;;;;;5052358;28;20049;-51
2021/11/27 10:24:50;;;;;;;33.08;19.23;;;8.60;99.90;;;;;;5052402;28;20073;-50
2021/11/27 10:27:28;;;;;;;41.88;23.02;;;8.30;99.90;;;;;;5052375;28;20095;-51
2021/11/27 10:29:58;;;;;;;45.05;27.50;;;8.20;99.90;;;;;;5052349;28;20029;-50
2021/11/27 10:32:39;;;;;;;45.08;27.58;;;8.40;99.90;;;;;;5052258;28;20122;-51
2021/11/27 10:35:08;;;;;;;36.05;24.15;;;8.60;99.90;;;;;;5052331;28;20055;-50
2021/11/27 10:37:41;;;;;;;49.10;31.42;;;8.90;99.90;;;;;;5052079;28;20048;-51
2021/11/27 10:40:12;;;;;;;31.83;17.98;;;9.10;99.90;;;;;;5051920;28;20041;-51
2021/11/27 10:42:45;;;;;;;40.47;24.92;;;8.70;99.90;;;;;;5042769;28;20400;-51
2021/11/27 10:45:29;;;;;;;26.80;16.55;;;8.70;99.90;;;;;;5031979;28;20041;-51
2021/11/27 10:48:08;;;;;;;33.35;21.65;;;8.60;99.90;;;;;;5032984;28;20049;-50
2021/11/27 10:50:49;;;;;;;31.08;16.73;;;8.60;99.90;;;;;;5051738;28;20059;-51
2021/11/27 10:53:35;;;;;;;33.33;19.75;;;8.50;99.90;;;;;;5051928;28;20045;-51
2021/11/27 10:56:09;;;;;;;45.78;27.20;;;8.50;99.90;;;;;;5051691;28;20040;-51
2021/11/27 10:58:59;;;;;;;78.40;40.10;;;8.60;99.90;;;;;;5045685;28;20464;-52
2021/11/27 11:01:25;;;;;;;48.88;26.92;;;8.70;99.90;;;;;;5034350;28;20551;-51
2021/11/27 11:03:51;;;;;;;39.67;23.63;;;8.70;99.90;;;;;;5034225;28;20060;-51
2021/11/27 11:06:22;;;;;;;34.33;22.85;;;8.70;99.90;;;;;;5031923;28;20065;-51
2021/11/27 11:08:50;;;;;;;32.28;19.42;;;9.00;99.90;;;;;;5048607;28;20033;-51
2021/11/27 11:11:24;;;;;;;36.40;22.98;;;8.80;99.90;;;;;;5034153;28;20041;-50
2021/11/27 11:13:58;;;;;;;36.13;22.90;;;8.90;99.90;;;;;;5033013;28;20385;-51
2021/11/27 11:16:32;;;;;;;43.63;27.15;;;9.20;99.90;;;;;;5048399;28;20052;-51
2021/11/27 11:19:20;;;;;;;43.38;27.30;;;9.50;99.90;;;;;;5034125;28;20029;-51
2021/11/27 11:22:09;;;;;;;48.75;29.40;;;9.70;99.90;;;;;;5033828;28;20056;-51
2021/11/27 11:24:37;;;;;;;44.40;29.02;;;9.90;99.90;;;;;;5031041;28;20053;-51
2021/11/27 11:27:07;;;;;;;42.63;28.63;;;9.90;99.90;;;;;;5048266;28;20042;-51
2021/11/27 11:29:44;;;;;;;42.63;28.92;;;10.20;99.90;;;;;;5033903;28;20033;-50
2021/11/27 11:32:21;;;;;;;51.08;33.33;;;10.30;99.90;;;;;;5033754;28;20075;-51
2021/11/27 11:34:48;;;;;;;36.65;27.35;;;10.50;99.90;;;;;;5031337;28;20046;-51
2021/11/27 11:37:14;;;;;;;46.25;29.58;;;10.80;99.90;;;;;;5033306;28;20038;-51
2021/11/27 11:39:40;;;;;;;35.03;23.58;;;10.90;99.90;;;;;;5033426;28;20041;-51
2021/11/27 11:42:06;;;;;;;33.97;21.65;;;10.80;99.90;;;;;;5033535;28;20481;-51
2021/11/27 11:44:32;;;;;;;30.55;21.45;;;10.80;99.90;;;;;;5033805;28;20449;-50
2021/11/27 11:46:59;;;;;;;33.83;22.83;;;10.60;99.90;;;;;;5031011;28;20132;-50
2021/11/27 11:49:26;;;;;;;34.30;25.60;;;11.30;99.90;;;;;;5033442;28;20041;-50
2021/11/27 11:52:06;;;;;;;131.73;42.90;;;11.90;99.90;;;;;;5033078;28;20044;-51
2021/11/27 11:54:33;;;;;;;282.17;178.98;;;12.50;99.90;;;;;;5033203;28;20540;-51
2021/11/27 11:57:10;;;;;;;59.88;37.38;;;13.00;99.90;;;;;;5033195;28;20089;-51
2021/11/27 11:59:37;;;;;;;100.85;53.55;;;13.00;99.90;;;;;;5047736;28;20400;-51
2021/11/27 12:02:24;;;;;;;84.80;42.67;;;13.70;99.90;;;;;;5033174;28;20037;-51
2021/11/27 12:05:04;;;;;;;40.03;25.40;;;13.90;99.90;;;;;;5033188;28;20044;-51
2021/11/27 12:07:50;;;;;;;46.75;33.90;;;13.40;99.90;;;;;;5033190;28;20029;-51
2021/11/27 12:10:29;;;;;;;50.15;34.08;;;13.50;99.90;;;;;;5032966;28;20029;-50
2021/11/27 12:13:10;;;;;;;66.55;40.10;;;13.20;99.90;;;;;;5032973;28;20393;-51
2021/11/27 12:15:43;;;;;;;40.05;27.50;;;13.20;99.90;;;;;;5033081;28;20033;-51
2021/11/27 12:18:17;;;;;;;42.75;28.33;;;13.70;99.90;;;;;;5032804;28;20037;-51
2021/11/27 12:20:57;;;;;;;28.60;18.10;;;14.30;99.90;;;;;;5032730;28;20044;-51
2021/11/27 12:23:26;;;;;;;24.42;16.73;;;13.70;99.90;;;;;;5032740;28;20164;-51
2021/11/27 12:26:10;;;;;;;29.65;21.73;;;13.10;99.90;;;;;;5032342;28;20052;-51
2021/11/27 12:28:48;;;;;;;28.92;23.08;;;13.00;99.90;;;;;;5032817;28;20115;-51
2021/11/27 12:31:14;;;;;;;27.63;19.13;;;12.50;99.90;;;;;;5032491;28;20064;-51
2021/11/27 12:34:02;;;;;;;33.72;23.15;;;12.30;99.90;;;;;;5032214;28;20300;-50
2021/11/27 12:36:35;;;;;;;30.90;20.45;;;12.30;99.90;;;;;;5031469;28;20040;-51
2021/11/27 12:39:15;;;;;;;39.00;24.98;;;11.80;99.90;;;;;;5032243;28;20036;-51
2021/11/27 12:41:51;;;;;;;35.97;24.60;;;12.10;99.90;;;;;;5032373;28;20120;-51
2021/11/27 12:44:22;;;;;;;33.65;24.70;;;12.00;99.90;;;;;;5032342;28;20029;-51